To NAV CANADA Home Page Login to a new session Search on AWWS site Disclaimer Vers la page française équivalente Tips FAQ What's new on the site To the Forecasts and Observations / NOTAM section To "File a Flight Plan" website Publications and other links Update of the User's profile FIC Telephone Numbers My Weather Data Folder Route Weather Data Regional Weather Data Local Weather Data To the Forecasts and Observations / NOTAM section
Request Generated 01/21/2021 at 02:15:45 UTC . Weather information available at that time is displayed.

METAR/TAF

KAMLOOPS/BC    

METAR CYKA 210200Z VRB02KT 40SM SCT062 BKN250 M02/M04 A3018 RMK SC4CI2 SLP243=
METAR CYKA 210100Z 29005KT 40SM SCT067 BKN250 M01/M04 A3017 RMK AC3CI2 SLP239=
METAR CYKA 210000Z 00000KT 40SM BKN068 BKN250 00/M03 A3017 RMK AC5CI1 SLP237=

TAF CYKA 210038Z 2101/2113 VRB03KT P6SM SCT070 BKN200 TEMPO 2101/2104
BKN070 BKN200
FM210400 VRB03KT P6SM BKN200 TEMPO 2104/2113 3SM BR SCT200
RMK NXT FCST BY 210700Z=
Your time UTC time
Weather data provided by Environment Canada and NAV CANADA